sensor_id;sensor_type;location;lat;lon;timestamp;P1;durP1;ratioP1;P2;durP2;ratioP2
37365;SDS011;23239;51.504;7.456;2023-03-01T00:00:00;11.9;;;8.0;;
37365;SDS011;23239;51.504;7.456;2023-03-01T00:01:00;11.9;;;8.0;;
37365;SDS011;23239;51.504;7.456;2023-03-01T00:02:00;11.9;;;8.0;;
37365;SDS011;23239;51.504;7.456;2023-03-01T00:03:00;11.9;;;8.0;;
37365;SDS011;23239;51.504;7.456;2023-03-01T00:04:00;10.3;;;7.5;;
37365;SDS011;23239;51.504;7.456;2023-03-01T00:05:00;10.3;;;7.5;;
37365;SDS011;23239;51.504;7.456;2023-03-01T00:06:00;10.3;;;7.5;;
37365;SDS011;23239;51.504;7.456;2023-03-01T00:07:00;10.3;;;7.5;;
37365;SDS011;23239;51.504;7.456;2023-03-01T00:08:00;10.3;;;7.5;;
37365;SDS011;23239;51.504;7.456;2023-03-01T00:09:00;9.7;;;7.5;;
37365;SDS011;23239;51.504;7.456;2023-03-01T00:10:00;9.7;;;7.5;;
37365;SDS011;23239;51.504;7.456;2023-03-01T00:11:01;9.7;;;7.5;;
37365;SDS011;23239;51.504;7.456;2023-03-01T00:12:00;9.7;;;7.5;;
37365;SDS011;23239;51.504;7.456;2023-03-01T00:13:00;9.7;;;7.5;;
37365;SDS011;23239;51.504;7.456;2023-03-01T00:14:00;11.8;;;7.8;;
37365;SDS011;23239;51.504;7.456;2023-03-01T00:15:00;11.8;;;7.8;;
37365;SDS011;23239;51.504;7.456;2023-03-01T00:16:01;11.8;;;7.8;;
37365;SDS011;23239;51.504;7.456;2023-03-01T00:17:00;11.8;;;7.8;;
37365;SDS011;23239;51.504;7.456;2023-03-01T00:18:00;11.8;;;7.8;;
37365;SDS011;23239;51.504;7.456;2023-03-01T00:19:00;11.9;;;8.1;;
37365;SDS011;23239;51.504;7.456;2023-03-01T00:20:00;11.9;;;8.1;;
37365;SDS011;23239;51.504;7.456;2023-03-01T00:21:00;11.9;;;8.1;;
37365;SDS011;23239;51.504;7.456;2023-03-01T00:22:00;11.9;;;8.1;;
37365;SDS011;23239;51.504;7.456;2023-03-01T00:23:00;11.9;;;8.1;;
37365;SDS011;23239;51.504;7.456;2023-03-01T00:24:00;13.0;;;7.9;;
37365;SDS011;23239;51.504;7.456;2023-03-01T00:25:00;13.0;;;7.9;;
37365;SDS011;23239;51.504;7.456;2023-03-01T00:26:00;13.0;;;7.9;;
37365;SDS011;23239;51.504;7.456;2023-03-01T00:27:00;13.0;;;7.9;;
37365;SDS011;23239;51.504;7.456;2023-03-01T00:28:00;13.0;;;7.9;;
37365;SDS011;23239;51.504;7.456;2023-03-01T00:29:00;12.2;;;7.9;;
37365;SDS011;23239;51.504;7.456;2023-03-01T00:30:00;12.2;;;7.9;;
37365;SDS011;23239;51.504;7.456;2023-03-01T00:31:02;12.2;;;7.9;;
37365;SDS011;23239;51.504;7.456;2023-03-01T00:32:00;12.2;;;7.9;;
37365;SDS011;23239;51.504;7.456;2023-03-01T00:33:00;12.2;;;7.9;;
37365;SDS011;23239;51.504;7.456;2023-03-01T00:34:01;11.3;;;7.5;;
37365;SDS011;23239;51.504;7.456;2023-03-01T00:35:00;11.3;;;7.5;;
37365;SDS011;23239;51.504;7.456;2023-03-01T00:36:00;11.3;;;7.5;;
37365;SDS011;23239;51.504;7.456;2023-03-01T00:37:00;11.3;;;7.5;;
37365;SDS011;23239;51.504;7.456;2023-03-01T00:38:00;11.3;;;7.5;;
37365;SDS011;23239;51.504;7.456;2023-03-01T00:39:00;11.0;;;7.7;;
37365;SDS011;23239;51.504;7.456;2023-03-01T00:40:00;11.0;;;7.7;;
37365;SDS011;23239;51.504;7.456;2023-03-01T00:41:02;11.0;;;7.7;;
37365;SDS011;23239;51.504;7.456;2023-03-01T00:42:00;11.0;;;7.7;;
37365;SDS011;23239;51.504;7.456;2023-03-01T00:43:00;11.0;;;7.7;;
37365;SDS011;23239;51.504;7.456;2023-03-01T00:44:03;11.6;;;7.6;;
37365;SDS011;23239;51.504;7.456;2023-03-01T00:45:00;11.6;;;7.6;;
37365;SDS011;23239;51.504;7.456;2023-03-01T00:46:00;11.6;;;7.6;;
37365;SDS011;23239;51.504;7.456;2023-03-01T00:47:00;11.6;;;7.6;;
37365;SDS011;23239;51.504;7.456;2023-03-01T00:48:00;11.6;;;7.6;;
37365;SDS011;23239;51.504;7.456;2023-03-01T00:49:00;11.1;;;7.5;;
37365;SDS011;23239;51.504;7.456;2023-03-01T00:50:00;11.1;;;7.5;;
37365;SDS011;23239;51.504;7.456;2023-03-01T00:51:03;11.1;;;7.5;;
37365;SDS011;23239;51.504;7.456;2023-03-01T00:52:00;11.1;;;7.5;;
37365;SDS011;23239;51.504;7.456;2023-03-01T00:53:00;11.1;;;7.5;;
37365;SDS011;23239;51.504;7.456;2023-03-01T00:54:00;11.2;;;8.4;;
37365;SDS011;23239;51.504;7.456;2023-03-01T00:55:00;11.2;;;8.4;;
37365;SDS011;23239;51.504;7.456;2023-03-01T00:56:00;11.2;;;8.4;;
37365;SDS011;23239;51.504;7.456;2023-03-01T00:57:00;11.2;;;8.4;;
37365;SDS011;23239;51.504;7.456;2023-03-01T00:58:00;11.2;;;8.4;;
37365;SDS011;23239;51.504;7.456;2023-03-01T00:59:00;11.1;;;8.0;;
37365;SDS011;23239;51.504;7.456;2023-03-01T01:00:00;11.1;;;8.0;;
37365;SDS011;23239;51.504;7.456;2023-03-01T01:01:00;11.1;;;8.0;;
37365;SDS011;23239;51.504;7.456;2023-03-01T01:02:00;11.1;;;8.0;;
37365;SDS011;23239;51.504;7.456;2023-03-01T01:03:00;11.1;;;8.0;;
37365;SDS011;23239;51.504;7.456;2023-03-01T01:04:01;11.4;;;7.6;;
37365;SDS011;23239;51.504;7.456;2023-03-01T01:05:00;11.4;;;7.6;;
37365;SDS011;23239;51.504;7.456;2023-03-01T01:06:00;11.4;;;7.6;;
37365;SDS011;23239;51.504;7.456;2023-03-01T01:07:00;11.4;;;7.6;;
37365;SDS011;23239;51.504;7.456;2023-03-01T01:08:00;11.4;;;7.6;;
37365;SDS011;23239;51.504;7.456;2023-03-01T01:09:00;10.4;;;7.6;;
37365;SDS011;23239;51.504;7.456;2023-03-01T01:10:00;10.4;;;7.6;;
37365;SDS011;23239;51.504;7.456;2023-03-01T01:11:00;10.4;;;7.6;;
37365;SDS011;23239;51.504;7.456;2023-03-01T01:12:00;10.4;;;7.6;;
37365;SDS011;23239;51.504;7.456;2023-03-01T01:13:00;10.4;;;7.6;;
37365;SDS011;23239;51.504;7.456;2023-03-01T01:14:00;10.8;;;7.7;;
37365;SDS011;23239;51.504;7.456;2023-03-01T01:15:00;10.8;;;7.7;;
37365;SDS011;23239;51.504;7.456;2023-03-01T01:16:00;10.8;;;7.7;;
37365;SDS011;23239;51.504;7.456;2023-03-01T01:17:00;10.8;;;7.7;;
37365;SDS011;23239;51.504;7.456;2023-03-01T01:18:00;10.8;;;7.7;;
37365;SDS011;23239;51.504;7.456;2023-03-01T01:19:00;10.3;;;7.5;;
37365;SDS011;23239;51.504;7.456;2023-03-01T01:20:00;10.3;;;7.5;;
37365;SDS011;23239;51.504;7.456;2023-03-01T01:21:03;10.3;;;7.5;;
37365;SDS011;23239;51.504;7.456;2023-03-01T01:22:00;10.3;;;7.5;;
37365;SDS011;23239;51.504;7.456;2023-03-01T01:23:00;10.3;;;7.5;;
37365;SDS011;23239;51.504;7.456;2023-03-01T01:24:00;12.5;;;7.9;;
37365;SDS011;23239;51.504;7.456;2023-03-01T01:25:00;12.5;;;7.9;;
37365;SDS011;23239;51.504;7.456;2023-03-01T01:26:05;12.5;;;7.9;;
37365;SDS011;23239;51.504;7.456;2023-03-01T01:27:00;12.5;;;7.9;;
37365;SDS011;23239;51.504;7.456;2023-03-01T01:28:00;12.5;;;7.9;;
37365;SDS011;23239;51.504;7.456;2023-03-01T01:29:01;11.9;;;8.3;;
37365;SDS011;23239;51.504;7.456;2023-03-01T01:30:00;11.9;;;8.3;;
37365;SDS011;23239;51.504;7.456;2023-03-01T01:31:00;11.9;;;8.3;;
37365;SDS011;23239;51.504;7.456;2023-03-01T01:32:00;11.9;;;8.3;;
37365;SDS011;23239;51.504;7.456;2023-03-01T01:33:00;11.9;;;8.3;;
37365;SDS011;23239;51.504;7.456;2023-03-01T01:34:00;11.8;;;8.5;;
37365;SDS011;23239;51.504;7.456;2023-03-01T01:35:00;11.8;;;8.5;;
37365;SDS011;23239;51.504;7.456;2023-03-01T01:36:00;11.8;;;8.5;;
37365;SDS011;23239;51.504;7.456;2023-03-01T01:37:00;11.8;;;8.5;;
37365;SDS011;23239;51.504;7.456;2023-03-01T01:38:00;11.8;;;8.5;;
37365;SDS011;23239;51.504;7.456;2023-03-01T01:39:00;11.4;;;9.0;;
37365;SDS011;23239;51.504;7.456;2023-03-01T01:40:00;11.4;;;9.0;;
37365;SDS011;23239;51.504;7.456;2023-03-01T01:41:00;11.4;;;9.0;;
37365;SDS011;23239;51.504;7.456;2023-03-01T01:42:00;11.4;;;9.0;;
37365;SDS011;23239;51.504;7.456;2023-03-01T01:43:00;11.4;;;9.0;;
37365;SDS011;23239;51.504;7.456;2023-03-01T01:46:01;11.5;;;8.8;;
37365;SDS011;23239;51.504;7.456;2023-03-01T01:47:00;11.5;;;8.8;;
37365;SDS011;23239;51.504;7.456;2023-03-01T01:48:01;11.5;;;8.8;;
37365;SDS011;23239;51.504;7.456;2023-03-01T01:49:00;13.2;;;8.7;;
37365;SDS011;23239;51.504;7.456;2023-03-01T01:50:00;13.2;;;8.7;;
37365;SDS011;23239;51.504;7.456;2023-03-01T01:51:00;13.2;;;8.7;;
37365;SDS011;23239;51.504;7.456;2023-03-01T01:52:02;13.2;;;8.7;;
37365;SDS011;23239;51.504;7.456;2023-03-01T01:53:00;13.2;;;8.7;;
37365;SDS011;23239;51.504;7.456;2023-03-01T01:54:00;11.4;;;7.9;;
37365;SDS011;23239;51.504;7.456;2023-03-01T01:55:00;11.4;;;7.9;;
37365;SDS011;23239;51.504;7.456;2023-03-01T01:56:00;11.4;;;7.9;;
37365;SDS011;23239;51.504;7.456;2023-03-01T01:57:00;11.4;;;7.9;;
37365;SDS011;23239;51.504;7.456;2023-03-01T01:58:01;11.4;;;7.9;;
37365;SDS011;23239;51.504;7.456;2023-03-01T01:59:00;11.4;;;8.1;;
37365;SDS011;23239;51.504;7.456;2023-03-01T02:00:00;11.4;;;8.1;;
37365;SDS011;23239;51.504;7.456;2023-03-01T02:01:00;11.4;;;8.1;;
37365;SDS011;23239;51.504;7.456;2023-03-01T02:02:00;11.4;;;8.1;;
37365;SDS011;23239;51.504;7.456;2023-03-01T02:03:01;11.4;;;8.1;;
37365;SDS011;23239;51.504;7.456;2023-03-01T02:04:00;10.5;;;8.2;;
37365;SDS011;23239;51.504;7.456;2023-03-01T02:05:01;10.5;;;8.2;;
37365;SDS011;23239;51.504;7.456;2023-03-01T02:06:01;10.5;;;8.2;;
37365;SDS011;23239;51.504;7.456;2023-03-01T02:07:01;10.5;;;8.2;;
37365;SDS011;23239;51.504;7.456;2023-03-01T02:08:00;10.5;;;8.2;;
37365;SDS011;23239;51.504;7.456;2023-03-01T02:09:00;10.5;;;8.5;;
37365;SDS011;23239;51.504;7.456;2023-03-01T02:10:00;10.5;;;8.5;;
37365;SDS011;23239;51.504;7.456;2023-03-01T02:11:00;10.5;;;8.5;;
37365;SDS011;23239;51.504;7.456;2023-03-01T02:12:00;10.5;;;8.5;;
37365;SDS011;23239;51.504;7.456;2023-03-01T02:13:00;10.5;;;8.5;;
37365;SDS011;23239;51.504;7.456;2023-03-01T02:14:00;9.8;;;8.1;;
37365;SDS011;23239;51.504;7.456;2023-03-01T02:15:00;9.8;;;8.1;;
37365;SDS011;23239;51.504;7.456;2023-03-01T02:16:02;9.8;;;8.1;;
37365;SDS011;23239;51.504;7.456;2023-03-01T02:17:03;9.8;;;8.1;;
37365;SDS011;23239;51.504;7.456;2023-03-01T02:18:00;9.8;;;8.1;;
37365;SDS011;23239;51.504;7.456;2023-03-01T02:19:00;11.7;;;8.5;;
37365;SDS011;23239;51.504;7.456;2023-03-01T02:20:03;11.7;;;8.5;;
37365;SDS011;23239;51.504;7.456;2023-03-01T02:21:03;11.7;;;8.5;;
37365;SDS011;23239;51.504;7.456;2023-03-01T02:22:01;11.7;;;8.5;;
37365;SDS011;23239;51.504;7.456;2023-03-01T02:23:00;11.7;;;8.5;;
37365;SDS011;23239;51.504;7.456;2023-03-01T02:24:01;11.3;;;7.9;;
37365;SDS011;23239;51.504;7.456;2023-03-01T02:25:03;11.3;;;7.9;;
37365;SDS011;23239;51.504;7.456;2023-03-01T02:26:01;11.3;;;7.9;;
37365;SDS011;23239;51.504;7.456;2023-03-01T02:27:00;11.3;;;7.9;;
37365;SDS011;23239;51.504;7.456;2023-03-01T02:28:02;11.3;;;7.9;;
37365;SDS011;23239;51.504;7.456;2023-03-01T02:29:00;11.0;;;8.2;;
37365;SDS011;23239;51.504;7.456;2023-03-01T02:30:00;11.0;;;8.2;;
37365;SDS011;23239;51.504;7.456;2023-03-01T02:31:00;11.0;;;8.2;;
37365;SDS011;23239;51.504;7.456;2023-03-01T02:32:00;11.0;;;8.2;;
37365;SDS011;23239;51.504;7.456;2023-03-01T02:33:00;11.0;;;8.2;;
37365;SDS011;23239;51.504;7.456;2023-03-01T02:34:00;12.1;;;8.4;;
37365;SDS011;23239;51.504;7.456;2023-03-01T02:35:00;12.1;;;8.4;;
37365;SDS011;23239;51.504;7.456;2023-03-01T02:36:00;12.1;;;8.4;;
37365;SDS011;23239;51.504;7.456;2023-03-01T02:37:00;12.1;;;8.4;;
37365;SDS011;23239;51.504;7.456;2023-03-01T02:38:00;12.1;;;8.4;;
37365;SDS011;23239;51.504;7.456;2023-03-01T02:39:00;10.4;;;8.5;;
37365;SDS011;23239;51.504;7.456;2023-03-01T02:40:02;10.4;;;8.5;;
37365;SDS011;23239;51.504;7.456;2023-03-01T02:41:00;10.4;;;8.5;;
37365;SDS011;23239;51.504;7.456;2023-03-01T02:42:00;10.4;;;8.5;;
37365;SDS011;23239;51.504;7.456;2023-03-01T02:43:00;10.4;;;8.5;;
37365;SDS011;23239;51.504;7.456;2023-03-01T02:44:00;10.4;;;8.4;;
37365;SDS011;23239;51.504;7.456;2023-03-01T02:45:00;10.4;;;8.4;;
37365;SDS011;23239;51.504;7.456;2023-03-01T02:46:02;10.4;;;8.4;;
37365;SDS011;23239;51.504;7.456;2023-03-01T02:47:00;10.4;;;8.4;;
37365;SDS011;23239;51.504;7.456;2023-03-01T02:48:00;10.4;;;8.4;;
37365;SDS011;23239;51.504;7.456;2023-03-01T02:49:00;12.0;;;8.5;;
37365;SDS011;23239;51.504;7.456;2023-03-01T02:50:00;12.0;;;8.5;;
37365;SDS011;23239;51.504;7.456;2023-03-01T02:51:03;12.0;;;8.5;;
37365;SDS011;23239;51.504;7.456;2023-03-01T02:52:04;12.0;;;8.5;;
37365;SDS011;23239;51.504;7.456;2023-03-01T02:53:00;12.0;;;8.5;;
37365;SDS011;23239;51.504;7.456;2023-03-01T02:54:05;10.9;;;9.0;;
37365;SDS011;23239;51.504;7.456;2023-03-01T02:55:01;10.9;;;9.0;;
37365;SDS011;23239;51.504;7.456;2023-03-01T02:56:00;10.9;;;9.0;;
37365;SDS011;23239;51.504;7.456;2023-03-01T02:57:00;10.9;;;9.0;;
37365;SDS011;23239;51.504;7.456;2023-03-01T02:58:00;10.9;;;9.0;;
37365;SDS011;23239;51.504;7.456;2023-03-01T02:59:00;11.7;;;9.2;;
37365;SDS011;23239;51.504;7.456;2023-03-01T03:00:01;11.7;;;9.2;;
37365;SDS011;23239;51.504;7.456;2023-03-01T03:01:00;11.7;;;9.2;;
37365;SDS011;23239;51.504;7.456;2023-03-01T03:02:00;11.7;;;9.2;;
37365;SDS011;23239;51.504;7.456;2023-03-01T03:03:00;11.7;;;9.2;;
37365;SDS011;23239;51.504;7.456;2023-03-01T03:04:00;11.3;;;9.0;;
37365;SDS011;23239;51.504;7.456;2023-03-01T03:05:00;11.3;;;9.0;;
37365;SDS011;23239;51.504;7.456;2023-03-01T03:06:00;11.3;;;9.0;;
37365;SDS011;23239;51.504;7.456;2023-03-01T03:07:00;11.3;;;9.0;;
37365;SDS011;23239;51.504;7.456;2023-03-01T03:08:00;11.3;;;9.0;;
37365;SDS011;23239;51.504;7.456;2023-03-01T03:09:00;13.8;;;9.2;;
37365;SDS011;23239;51.504;7.456;2023-03-01T03:10:00;13.8;;;9.2;;
37365;SDS011;23239;51.504;7.456;2023-03-01T03:11:00;13.8;;;9.2;;
37365;SDS011;23239;51.504;7.456;2023-03-01T03:12:00;13.8;;;9.2;;
37365;SDS011;23239;51.504;7.456;2023-03-01T03:13:00;13.8;;;9.2;;
37365;SDS011;23239;51.504;7.456;2023-03-01T03:14:00;12.7;;;9.3;;
37365;SDS011;23239;51.504;7.456;2023-03-01T03:15:00;12.7;;;9.3;;
37365;SDS011;23239;51.504;7.456;2023-03-01T03:16:00;12.7;;;9.3;;
37365;SDS011;23239;51.504;7.456;2023-03-01T03:17:00;12.7;;;9.3;;
37365;SDS011;23239;51.504;7.456;2023-03-01T03:18:00;12.7;;;9.3;;
37365;SDS011;23239;51.504;7.456;2023-03-01T03:19:00;13.7;;;8.9;;
37365;SDS011;23239;51.504;7.456;2023-03-01T03:20:00;13.7;;;8.9;;
37365;SDS011;23239;51.504;7.456;2023-03-01T03:21:00;13.7;;;8.9;;
37365;SDS011;23239;51.504;7.456;2023-03-01T03:22:00;13.7;;;8.9;;
37365;SDS011;23239;51.504;7.456;2023-03-01T03:23:00;13.7;;;8.9;;
37365;SDS011;23239;51.504;7.456;2023-03-01T03:24:00;11.9;;;9.3;;
37365;SDS011;23239;51.504;7.456;2023-03-01T03:25:00;11.9;;;9.3;;
37365;SDS011;23239;51.504;7.456;2023-03-01T03:26:00;11.9;;;9.3;;
37365;SDS011;23239;51.504;7.456;2023-03-01T03:27:00;11.9;;;9.3;;
37365;SDS011;23239;51.504;7.456;2023-03-01T03:28:00;11.9;;;9.3;;
37365;SDS011;23239;51.504;7.456;2023-03-01T03:29:00;11.9;;;8.9;;
37365;SDS011;23239;51.504;7.456;2023-03-01T03:30:00;11.9;;;8.9;;
37365;SDS011;23239;51.504;7.456;2023-03-01T03:31:00;11.9;;;8.9;;
37365;SDS011;23239;51.504;7.456;2023-03-01T03:32:00;11.9;;;8.9;;
37365;SDS011;23239;51.504;7.456;2023-03-01T03:33:00;11.9;;;8.9;;
37365;SDS011;23239;51.504;7.456;2023-03-01T03:34:00;11.5;;;9.6;;
37365;SDS011;23239;51.504;7.456;2023-03-01T03:35:00;11.5;;;9.6;;
37365;SDS011;23239;51.504;7.456;2023-03-01T03:36:00;11.5;;;9.6;;
37365;SDS011;23239;51.504;7.456;2023-03-01T03:37:00;11.5;;;9.6;;
37365;SDS011;23239;51.504;7.456;2023-03-01T03:38:01;11.5;;;9.6;;
37365;SDS011;23239;51.504;7.456;2023-03-01T03:39:00;14.5;;;10.0;;
37365;SDS011;23239;51.504;7.456;2023-03-01T03:40:00;14.5;;;10.0;;
37365;SDS011;23239;51.504;7.456;2023-03-01T03:41:00;14.5;;;10.0;;
37365;SDS011;23239;51.504;7.456;2023-03-01T03:42:00;14.5;;;10.0;;
37365;SDS011;23239;51.504;7.456;2023-03-01T03:43:00;14.5;;;10.0;;
37365;SDS011;23239;51.504;7.456;2023-03-01T03:44:00;11.8;;;10.2;;
37365;SDS011;23239;51.504;7.456;2023-03-01T03:45:00;11.8;;;10.2;;
37365;SDS011;23239;51.504;7.456;2023-03-01T03:46:00;11.8;;;10.2;;
37365;SDS011;23239;51.504;7.456;2023-03-01T03:47:00;11.8;;;10.2;;
37365;SDS011;23239;51.504;7.456;2023-03-01T03:48:00;11.8;;;10.2;;
37365;SDS011;23239;51.504;7.456;2023-03-01T03:49:00;11.6;;;9.6;;
37365;SDS011;23239;51.504;7.456;2023-03-01T03:50:00;11.6;;;9.6;;
37365;SDS011;23239;51.504;7.456;2023-03-01T03:51:00;11.6;;;9.6;;
37365;SDS011;23239;51.504;7.456;2023-03-01T03:52:00;11.6;;;9.6;;
37365;SDS011;23239;51.504;7.456;2023-03-01T03:53:00;11.6;;;9.6;;
37365;SDS011;23239;51.504;7.456;2023-03-01T03:54:00;13.8;;;10.3;;
37365;SDS011;23239;51.504;7.456;2023-03-01T03:55:00;13.8;;;10.3;;
37365;SDS011;23239;51.504;7.456;2023-03-01T03:56:00;13.8;;;10.3;;
37365;SDS011;23239;51.504;7.456;2023-03-01T03:57:00;13.8;;;10.3;;
37365;SDS011;23239;51.504;7.456;2023-03-01T03:58:00;13.8;;;10.3;;
37365;SDS011;23239;51.504;7.456;2023-03-01T03:59:00;13.4;;;10.7;;
37365;SDS011;23239;51.504;7.456;2023-03-01T04:00:00;13.4;;;10.7;;
37365;SDS011;23239;51.504;7.456;2023-03-01T04:01:00;13.4;;;10.7;;
37365;SDS011;23239;51.504;7.456;2023-03-01T04:02:00;13.4;;;10.7;;
37365;SDS011;23239;51.504;7.456;2023-03-01T04:03:00;13.4;;;10.7;;
37365;SDS011;23239;51.504;7.456;2023-03-01T04:04:00;12.8;;;9.7;;
37365;SDS011;23239;51.504;7.456;2023-03-01T04:05:00;12.8;;;9.7;;
37365;SDS011;23239;51.504;7.456;2023-03-01T04:06:00;12.8;;;9.7;;
37365;SDS011;23239;51.504;7.456;2023-03-01T04:07:00;12.8;;;9.7;;
37365;SDS011;23239;51.504;7.456;2023-03-01T04:08:00;12.8;;;9.7;;
37365;SDS011;23239;51.504;7.456;2023-03-01T04:09:00;13.5;;;10.4;;
37365;SDS011;23239;51.504;7.456;2023-03-01T04:10:00;13.5;;;10.4;;
37365;SDS011;23239;51.504;7.456;2023-03-01T04:11:01;13.5;;;10.4;;
37365;SDS011;23239;51.504;7.456;2023-03-01T04:12:00;13.5;;;10.4;;
37365;SDS011;23239;51.504;7.456;2023-03-01T04:14:00;13.6;;;9.7;;
37365;SDS011;23239;51.504;7.456;2023-03-01T04:15:00;13.6;;;9.7;;
37365;SDS011;23239;51.504;7.456;2023-03-01T04:16:00;13.6;;;9.7;;
37365;SDS011;23239;51.504;7.456;2023-03-01T04:17:00;13.6;;;9.7;;
37365;SDS011;23239;51.504;7.456;2023-03-01T04:18:00;13.6;;;9.7;;
37365;SDS011;23239;51.504;7.456;2023-03-01T04:19:00;11.3;;;10.0;;
37365;SDS011;23239;51.504;7.456;2023-03-01T04:20:00;11.3;;;10.0;;
37365;SDS011;23239;51.504;7.456;2023-03-01T04:21:00;11.3;;;10.0;;
37365;SDS011;23239;51.504;7.456;2023-03-01T04:22:00;11.3;;;10.0;;
37365;SDS011;23239;51.504;7.456;2023-03-01T04:23:00;11.3;;;10.0;;
37365;SDS011;23239;51.504;7.456;2023-03-01T04:24:00;14.4;;;9.6;;
37365;SDS011;23239;51.504;7.456;2023-03-01T04:25:00;14.4;;;9.6;;
37365;SDS011;23239;51.504;7.456;2023-03-01T04:26:00;14.4;;;9.6;;
37365;SDS011;23239;51.504;7.456;2023-03-01T04:27:00;14.4;;;9.6;;
37365;SDS011;23239;51.504;7.456;2023-03-01T04:28:00;14.4;;;9.6;;
37365;SDS011;23239;51.504;7.456;2023-03-01T04:29:00;10.5;;;9.0;;
37365;SDS011;23239;51.504;7.456;2023-03-01T04:30:00;10.5;;;9.0;;
37365;SDS011;23239;51.504;7.456;2023-03-01T04:31:02;10.5;;;9.0;;
37365;SDS011;23239;51.504;7.456;2023-03-01T04:32:00;10.5;;;9.0;;
37365;SDS011;23239;51.504;7.456;2023-03-01T04:33:00;10.5;;;9.0;;
37365;SDS011;23239;51.504;7.456;2023-03-01T04:34:00;12.8;;;9.4;;
37365;SDS011;23239;51.504;7.456;2023-03-01T04:35:00;12.8;;;9.4;;
37365;SDS011;23239;51.504;7.456;2023-03-01T04:36:00;12.8;;;9.4;;
37365;SDS011;23239;51.504;7.456;2023-03-01T04:37:00;12.8;;;9.4;;
37365;SDS011;23239;51.504;7.456;2023-03-01T04:38:00;12.8;;;9.4;;
37365;SDS011;23239;51.504;7.456;2023-03-01T04:39:00;12.7;;;10.2;;
37365;SDS011;23239;51.504;7.456;2023-03-01T04:40:00;12.7;;;10.2;;
37365;SDS011;23239;51.504;7.456;2023-03-01T04:41:00;12.7;;;10.2;;
37365;SDS011;23239;51.504;7.456;2023-03-01T04:42:00;12.7;;;10.2;;
37365;SDS011;23239;51.504;7.456;2023-03-01T04:43:00;12.7;;;10.2;;
37365;SDS011;23239;51.504;7.456;2023-03-01T04:44:00;11.4;;;9.3;;
37365;SDS011;23239;51.504;7.456;2023-03-01T04:45:00;11.4;;;9.3;;
37365;SDS011;23239;51.504;7.456;2023-03-01T04:46:00;11.4;;;9.3;;
37365;SDS011;23239;51.504;7.456;2023-03-01T04:47:00;11.4;;;9.3;;
37365;SDS011;23239;51.504;7.456;2023-03-01T04:48:00;11.4;;;9.3;;
37365;SDS011;23239;51.504;7.456;2023-03-01T04:49:00;12.7;;;9.7;;
37365;SDS011;23239;51.504;7.456;2023-03-01T04:50:00;12.7;;;9.7;;
37365;SDS011;23239;51.504;7.456;2023-03-01T04:51:00;12.7;;;9.7;;
37365;SDS011;23239;51.504;7.456;2023-03-01T04:52:00;12.7;;;9.7;;
37365;SDS011;23239;51.504;7.456;2023-03-01T04:53:00;12.7;;;9.7;;
37365;SDS011;23239;51.504;7.456;2023-03-01T04:54:00;15.2;;;10.1;;
37365;SDS011;23239;51.504;7.456;2023-03-01T04:55:00;15.2;;;10.1;;
37365;SDS011;23239;51.504;7.456;2023-03-01T04:56:00;15.2;;;10.1;;
37365;SDS011;23239;51.504;7.456;2023-03-01T04:57:00;15.2;;;10.1;;
37365;SDS011;23239;51.504;7.456;2023-03-01T04:58:00;15.2;;;10.1;;
37365;SDS011;23239;51.504;7.456;2023-03-01T04:59:00;11.9;;;9.8;;
37365;SDS011;23239;51.504;7.456;2023-03-01T05:00:00;11.9;;;9.8;;
37365;SDS011;23239;51.504;7.456;2023-03-01T05:01:00;11.9;;;9.8;;
37365;SDS011;23239;51.504;7.456;2023-03-01T05:03:00;11.9;;;9.8;;
37365;SDS011;23239;51.504;7.456;2023-03-01T05:04:00;12.4;;;9.6;;
37365;SDS011;23239;51.504;7.456;2023-03-01T05:05:00;12.4;;;9.6;;
37365;SDS011;23239;51.504;7.456;2023-03-01T05:06:00;12.4;;;9.6;;
37365;SDS011;23239;51.504;7.456;2023-03-01T05:07:00;12.4;;;9.6;;
37365;SDS011;23239;51.504;7.456;2023-03-01T05:08:00;12.4;;;9.6;;
37365;SDS011;23239;51.504;7.456;2023-03-01T05:09:00;12.7;;;9.9;;
37365;SDS011;23239;51.504;7.456;2023-03-01T05:10:00;12.7;;;9.9;;
37365;SDS011;23239;51.504;7.456;2023-03-01T05:11:00;12.7;;;9.9;;
37365;SDS011;23239;51.504;7.456;2023-03-01T05:12:00;12.7;;;9.9;;
37365;SDS011;23239;51.504;7.456;2023-03-01T05:13:00;12.7;;;9.9;;
37365;SDS011;23239;51.504;7.456;2023-03-01T05:14:00;13.5;;;10.0;;
37365;SDS011;23239;51.504;7.456;2023-03-01T05:15:00;13.5;;;10.0;;
37365;SDS011;23239;51.504;7.456;2023-03-01T05:16:00;13.5;;;10.0;;
37365;SDS011;23239;51.504;7.456;2023-03-01T05:17:00;13.5;;;10.0;;
37365;SDS011;23239;51.504;7.456;2023-03-01T05:18:00;13.5;;;10.0;;
37365;SDS011;23239;51.504;7.456;2023-03-01T05:19:00;13.2;;;10.0;;
37365;SDS011;23239;51.504;7.456;2023-03-01T05:20:00;13.2;;;10.0;;
37365;SDS011;23239;51.504;7.456;2023-03-01T05:21:02;13.2;;;10.0;;
37365;SDS011;23239;51.504;7.456;2023-03-01T05:22:00;13.2;;;10.0;;
37365;SDS011;23239;51.504;7.456;2023-03-01T05:23:00;13.2;;;10.0;;
37365;SDS011;23239;51.504;7.456;2023-03-01T05:24:00;15.0;;;10.8;;
37365;SDS011;23239;51.504;7.456;2023-03-01T05:25:00;15.0;;;10.8;;
37365;SDS011;23239;51.504;7.456;2023-03-01T05:26:00;15.0;;;10.8;;
37365;SDS011;23239;51.504;7.456;2023-03-01T05:27:00;15.0;;;10.8;;
37365;SDS011;23239;51.504;7.456;2023-03-01T05:28:00;15.0;;;10.8;;
37365;SDS011;23239;51.504;7.456;2023-03-01T05:29:00;11.8;;;9.8;;
37365;SDS011;23239;51.504;7.456;2023-03-01T05:30:00;11.8;;;9.8;;
37365;SDS011;23239;51.504;7.456;2023-03-01T05:31:00;11.8;;;9.8;;
37365;SDS011;23239;51.504;7.456;2023-03-01T05:32:01;11.8;;;9.8;;
37365;SDS011;23239;51.504;7.456;2023-03-01T05:33:00;11.8;;;9.8;;
37365;SDS011;23239;51.504;7.456;2023-03-01T05:34:00;13.0;;;10.1;;
37365;SDS011;23239;51.504;7.456;2023-03-01T05:35:00;13.0;;;10.1;;
37365;SDS011;23239;51.504;7.456;2023-03-01T05:36:00;13.0;;;10.1;;
37365;SDS011;23239;51.504;7.456;2023-03-01T05:37:00;13.0;;;10.1;;
37365;SDS011;23239;51.504;7.456;2023-03-01T05:38:00;13.0;;;10.1;;
37365;SDS011;23239;51.504;7.456;2023-03-01T05:39:00;12.7;;;10.3;;
37365;SDS011;23239;51.504;7.456;2023-03-01T05:40:00;12.7;;;10.3;;
37365;SDS011;23239;51.504;7.456;2023-03-01T05:41:00;12.7;;;10.3;;
37365;SDS011;23239;51.504;7.456;2023-03-01T05:42:00;12.7;;;10.3;;
37365;SDS011;23239;51.504;7.456;2023-03-01T05:43:00;12.7;;;10.3;;
37365;SDS011;23239;51.504;7.456;2023-03-01T05:44:00;15.9;;;10.4;;
37365;SDS011;23239;51.504;7.456;2023-03-01T05:45:00;15.9;;;10.4;;
37365;SDS011;23239;51.504;7.456;2023-03-01T05:46:00;15.9;;;10.4;;
37365;SDS011;23239;51.504;7.456;2023-03-01T05:47:00;15.9;;;10.4;;
37365;SDS011;23239;51.504;7.456;2023-03-01T05:48:00;15.9;;;10.4;;
37365;SDS011;23239;51.504;7.456;2023-03-01T05:49:00;13.7;;;12.0;;
37365;SDS011;23239;51.504;7.456;2023-03-01T05:50:00;13.7;;;12.0;;
37365;SDS011;23239;51.504;7.456;2023-03-01T05:51:00;13.7;;;12.0;;
37365;SDS011;23239;51.504;7.456;2023-03-01T05:52:00;13.7;;;12.0;;
37365;SDS011;23239;51.504;7.456;2023-03-01T05:53:00;13.7;;;12.0;;
37365;SDS011;23239;51.504;7.456;2023-03-01T05:54:00;14.0;;;11.0;;
37365;SDS011;23239;51.504;7.456;2023-03-01T05:55:00;14.0;;;11.0;;
37365;SDS011;23239;51.504;7.456;2023-03-01T05:56:02;14.0;;;11.0;;
37365;SDS011;23239;51.504;7.456;2023-03-01T05:57:00;14.0;;;11.0;;
37365;SDS011;23239;51.504;7.456;2023-03-01T05:58:00;14.0;;;11.0;;
37365;SDS011;23239;51.504;7.456;2023-03-01T05:59:00;14.5;;;11.7;;
37365;SDS011;23239;51.504;7.456;2023-03-01T06:00:00;14.5;;;11.7;;
37365;SDS011;23239;51.504;7.456;2023-03-01T06:01:00;14.5;;;11.7;;
37365;SDS011;23239;51.504;7.456;2023-03-01T06:02:00;14.5;;;11.7;;
37365;SDS011;23239;51.504;7.456;2023-03-01T06:03:00;14.5;;;11.7;;
37365;SDS011;23239;51.504;7.456;2023-03-01T06:04:00;15.1;;;11.0;;
37365;SDS011;23239;51.504;7.456;2023-03-01T06:05:00;15.1;;;11.0;;
37365;SDS011;23239;51.504;7.456;2023-03-01T06:06:00;15.1;;;11.0;;
37365;SDS011;23239;51.504;7.456;2023-03-01T06:07:00;15.1;;;11.0;;
37365;SDS011;23239;51.504;7.456;2023-03-01T06:08:00;15.1;;;11.0;;
37365;SDS011;23239;51.504;7.456;2023-03-01T06:09:00;14.2;;;11.0;;